Time;durP1;ratioP1;P1;durP2;ratioP2;P2;SDS_P1;SDS_P2;PMS_P1;PMS_P2;Temp;Humidity;BMP_temperature;BMP_pressure;BME280_temperature;BME280_humidity;BME280_pressure;Samples;Min_cycle;Max_cycle;Signal;HPM_P1;HPM_P2
2021/10/25 00:01:01;;;;;;;6.15;3.75;;;;;;;3.70;93.60;101120.50;5030159;28;20066;-76
2021/10/25 00:03:27;;;;;;;6.18;4.50;;;;;;;3.65;94.17;101121.69;5030258;28;20033;-76
2021/10/25 00:05:52;;;;;;;6.25;4.13;;;;;;;3.60;93.54;101111.53;5029649;28;20030;-76
2021/10/25 00:08:17;;;;;;;6.18;4.38;;;;;;;3.57;93.99;101111.72;5029495;28;20041;-77
2021/10/25 00:10:44;;;;;;;5.75;4.55;;;;;;;3.51;93.85;101110.31;5030367;28;20033;-76
2021/10/25 00:13:10;;;;;;;9.70;4.50;;;;;;;3.46;93.58;101114.16;5029891;28;20394;-76
2021/10/25 00:15:36;;;;;;;6.20;4.18;;;;;;;3.39;94.07;101114.50;5028696;28;20029;-77
2021/10/25 00:18:02;;;;;;;71.60;8.13;;;;;;;3.42;94.26;101115.25;5029918;28;20030;-76
2021/10/25 00:20:27;;;;;;;6.13;4.40;;;;;;;3.37;94.12;101116.34;5029296;28;20033;-76
2021/10/25 00:22:53;;;;;;;5.47;3.90;;;;;;;3.34;93.44;101119.16;5029833;28;20092;-76
2021/10/25 00:25:18;;;;;;;5.22;3.92;;;;;;;3.39;94.77;101111.06;5029741;28;20172;-76
2021/10/25 00:27:43;;;;;;;5.78;4.20;;;;;;;3.45;94.56;101115.91;5030233;28;20052;-77
2021/10/25 00:30:10;;;;;;;5.68;3.97;;;;;;;3.51;94.51;101120.78;5028302;28;20509;-76
2021/10/25 00:32:35;;;;;;;6.10;4.25;;;;;;;3.47;93.28;101119.25;5029825;28;20036;-76
2021/10/25 00:35:00;;;;;;;6.40;4.38;;;;;;;3.38;92.96;101123.28;5029431;28;20033;-76
2021/10/25 00:37:26;;;;;;;6.03;4.07;;;;;;;3.37;94.31;101121.59;5028609;28;20025;-76
2021/10/25 00:39:51;;;;;;;6.88;4.28;;;;;;;3.43;94.67;101114.31;5029676;28;20486;-76
2021/10/25 00:42:16;;;;;;;6.22;4.10;;;;;;;3.47;92.54;101123.66;5029044;28;20121;-77
2021/10/25 00:44:42;;;;;;;6.32;4.43;;;;;;;3.48;91.57;101117.47;5029642;28;20034;-76
2021/10/25 00:47:08;;;;;;;5.43;4.05;;;;;;;3.36;92.60;101114.69;5029365;28;20524;-76
2021/10/25 00:49:34;;;;;;;5.78;4.10;;;;;;;3.38;91.27;101112.81;5029451;28;20114;-78
2021/10/25 00:52:00;;;;;;;6.38;4.03;;;;;;;3.36;93.97;101109.47;5030440;28;20029;-76
2021/10/25 00:54:25;;;;;;;5.70;3.85;;;;;;;3.38;93.61;101112.81;5028939;28;20060;-76
2021/10/25 00:56:50;;;;;;;5.72;4.20;;;;;;;3.34;93.78;101100.03;5028212;28;20056;-76
2021/10/25 00:59:16;;;;;;;5.85;4.40;;;;;;;3.28;94.19;101100.38;5029327;28;20113;-76
2021/10/25 01:01:42;;;;;;;5.95;4.18;;;;;;;3.17;93.43;101093.16;5029985;28;20034;-78
2021/10/25 01:04:09;;;;;;;6.25;4.55;;;;;;;3.08;93.52;101096.34;5032948;28;20033;-76
2021/10/25 01:06:36;;;;;;;5.82;4.10;;;;;;;3.10;93.29;101103.16;5031794;28;20447;-76
2021/10/25 01:09:02;;;;;;;6.10;4.28;;;;;;;3.11;93.36;101098.75;5033358;28;20453;-76
2021/10/25 01:11:27;;;;;;;8.13;4.50;;;;;;;3.01;93.56;101095.84;5033254;28;20033;-76
2021/10/25 01:13:53;;;;;;;6.45;4.80;;;;;;;2.96;93.41;101096.09;5033495;28;20029;-76
2021/10/25 01:16:19;;;;;;;7.22;4.70;;;;;;;2.88;93.14;101102.69;5033064;28;20513;-76
2021/10/25 01:18:45;;;;;;;6.75;4.95;;;;;;;2.81;94.08;101104.81;5033003;28;20064;-76
2021/10/25 01:21:14;;;;;;;5.78;4.30;;;;;;;2.77;94.03;101100.72;5033350;28;20183;-76
2021/10/25 01:23:39;;;;;;;6.50;4.80;;;;;;;2.85;92.85;101101.09;5031969;28;20387;-76
2021/10/25 01:26:05;;;;;;;6.78;4.20;;;;;;;2.87;91.82;101101.03;5033034;28;20041;-76
2021/10/25 01:28:31;;;;;;;6.97;4.53;;;;;;;2.88;91.31;101108.75;5032741;28;20577;-76
2021/10/25 01:30:56;;;;;;;7.07;4.40;;;;;;;2.86;91.32;101101.94;5033379;28;20399;-76
2021/10/25 01:33:22;;;;;;;7.05;4.75;;;;;;;2.84;91.06;101107.28;5032663;28;20099;-76
2021/10/25 01:35:48;;;;;;;8.90;4.35;;;;;;;2.86;92.94;101105.41;5032996;28;20589;-76
2021/10/25 01:38:13;;;;;;;5.78;4.13;;;;;;;2.91;92.27;101105.16;5032266;28;20120;-76
2021/10/25 01:40:39;;;;;;;6.95;4.60;;;;;;;2.90;91.35;101104.28;5033206;28;20029;-76
2021/10/25 01:43:05;;;;;;;5.80;4.03;;;;;;;2.87;93.19;101101.03;5032781;28;20026;-76
2021/10/25 01:45:31;;;;;;;6.95;4.53;;;;;;;2.85;93.05;101103.72;5032845;28;20029;-76
2021/10/25 01:47:57;;;;;;;6.57;4.40;;;;;;;2.78;93.89;101104.16;5031151;28;20196;-76
2021/10/25 01:50:23;;;;;;;6.22;4.75;;;;;;;2.74;93.56;101101.72;5032427;28;20025;-76
2021/10/25 01:52:49;;;;;;;7.60;4.35;;;;;;;2.70;93.52;101102.00;5032803;28;20076;-76
2021/10/25 01:55:16;;;;;;;6.22;4.63;;;;;;;2.68;93.88;101104.69;5032368;28;20029;-76
2021/10/25 01:57:41;;;;;;;9.73;5.10;;;;;;;2.74;94.96;101100.88;5032688;28;20033;-76
2021/10/25 02:00:07;;;;;;;6.43;4.55;;;;;;;2.80;94.62;101107.53;5032109;28;20525;-76
2021/10/25 02:02:32;;;;;;;7.30;4.35;;;;;;;2.81;93.72;101098.75;5030987;28;20033;-77
2021/10/25 02:05:01;;;;;;;7.25;5.03;;;;;;;2.73;94.21;101099.19;5032228;28;20422;-76
2021/10/25 02:07:26;;;;;;;7.05;4.90;;;;;;;2.65;94.61;101104.03;5031198;28;20029;-76
2021/10/25 02:09:52;;;;;;;8.35;5.40;;;;;;;2.61;95.82;101097.28;5032665;28;20036;-76
2021/10/25 02:12:17;;;;;;;9.02;5.40;;;;;;;2.58;95.94;101093.06;5031556;28;20029;-76
2021/10/25 02:14:42;;;;;;;7.53;4.97;;;;;;;2.60;96.87;101099.06;5032192;28;20029;-76
2021/10/25 02:17:08;;;;;;;7.63;5.28;;;;;;;2.59;96.54;101096.53;5032065;28;20049;-76
2021/10/25 02:19:33;;;;;;;8.73;5.47;;;;;;;2.57;95.76;101094.00;5032828;28;20029;-78
2021/10/25 02:21:58;;;;;;;7.40;5.53;;;;;;;2.55;96.60;101096.72;5030388;28;20072;-76
2021/10/25 02:24:24;;;;;;;7.57;5.55;;;;;;;2.54;96.30;101088.94;5030259;28;20429;-76
2021/10/25 02:26:50;;;;;;;6.38;4.95;;;;;;;2.54;95.92;101092.38;5030461;28;20506;-76
2021/10/25 02:29:15;;;;;;;9.20;6.40;;;;;;;2.54;96.78;101092.38;5030763;28;20030;-76
2021/10/25 02:31:40;;;;;;;7.65;5.82;;;;;;;2.68;97.37;101093.41;5031708;28;20038;-76
2021/10/25 02:34:06;;;;;;;7.28;5.65;;;;;;;2.66;96.09;101085.63;5031444;28;20128;-76
2021/10/25 02:36:31;;;;;;;7.88;5.75;;;;;;;2.68;97.64;101082.94;5030537;28;20212;-76
2021/10/25 02:38:57;;;;;;;7.55;5.85;;;;;;;2.65;97.17;101085.75;5031821;28;20067;-76
2021/10/25 02:41:23;;;;;;;6.88;5.38;;;;;;;2.71;96.37;101090.59;5031826;28;20025;-76
2021/10/25 02:43:48;;;;;;;7.20;5.22;;;;;;;2.71;96.33;101085.38;5031492;28;20037;-76
2021/10/25 02:46:14;;;;;;;7.75;5.72;;;;;;;2.72;96.87;101087.06;5030642;28;20030;-76
2021/10/25 02:48:40;;;;;;;7.38;5.90;;;;;;;2.71;97.05;101093.22;5030035;28;20044;-76
2021/10/25 02:51:06;;;;;;;7.35;5.95;;;;;;;2.71;97.26;101085.38;5032010;28;20441;-78
2021/10/25 02:53:32;;;;;;;9.65;6.25;;;;;;;2.68;97.48;101086.41;5031915;28;20025;-76
2021/10/25 02:55:57;;;;;;;8.07;5.55;;;;;;;2.64;96.55;101090.09;5029985;28;20087;-76
2021/10/25 02:58:23;;;;;;;8.57;5.85;;;;;;;2.61;96.34;101097.28;5029704;28;20033;-76
2021/10/25 03:00:49;;;;;;;7.25;5.57;;;;;;;2.53;95.45;101095.09;5030310;28;20557;-76
2021/10/25 03:03:14;;;;;;;7.90;5.50;;;;;;;2.51;95.87;101091.75;5031370;28;20196;-76
2021/10/25 03:05:39;;;;;;;5.85;4.90;;;;;;;2.55;95.80;101095.84;5029914;28;20064;-76
2021/10/25 03:08:05;;;;;;;7.78;4.90;;;;;;;2.58;96.20;101089.63;5031079;28;20167;-76
2021/10/25 03:10:30;;;;;;;7.57;5.22;;;;;;;2.63;94.06;101096.25;5031182;28;20388;-76
2021/10/25 03:12:56;;;;;;;6.28;4.70;;;;;;;2.62;94.13;101091.97;5031065;28;20045;-76
2021/10/25 03:15:22;;;;;;;6.43;4.80;;;;;;;2.61;95.39;101097.28;5030676;28;20123;-76
2021/10/25 03:17:48;;;;;;;8.80;5.30;;;;;;;2.63;95.42;101085.81;5031074;28;20570;-76
2021/10/25 03:20:13;;;;;;;6.88;4.82;;;;;;;2.71;95.90;101085.38;5030303;28;20171;-76
2021/10/25 03:22:40;;;;;;;7.50;5.00;;;;;;;2.65;94.54;101090.97;5031005;28;20112;-76
2021/10/25 03:25:07;;;;;;;8.38;5.50;;;;;;;2.55;95.21;101080.16;5030393;28;20117;-76
2021/10/25 03:27:32;;;;;;;7.90;5.72;;;;;;;2.51;95.27;101078.69;5031678;28;20514;-76
2021/10/25 03:29:58;;;;;;;7.53;5.53;;;;;;;2.51;95.74;101078.69;5031717;28;20125;-75
2021/10/25 03:32:24;;;;;;;8.80;5.45;;;;;;;2.48;95.90;101076.22;5032521;28;20075;-76
2021/10/25 03:34:50;;;;;;;7.50;5.50;;;;;;;2.49;95.16;101076.16;5030911;28;20437;-76
2021/10/25 03:37:17;;;;;;;7.82;5.32;;;;;;;2.44;94.20;101066.91;5032201;28;20494;-76
2021/10/25 03:39:45;;;;;;;7.70;5.38;;;;;;;2.37;94.65;101068.19;5032054;28;20099;-76
2021/10/25 03:42:23;;;;;;;8.52;6.00;;;;;;;2.35;95.83;101070.88;5029987;28;20041;-76
2021/10/25 03:44:54;;;;;;;9.85;6.20;;;;;;;2.31;96.45;101061.50;5030606;28;20097;-76
2021/10/25 03:47:26;;;;;;;7.60;5.50;;;;;;;2.33;96.57;101055.28;5030413;28;20044;-76
2021/10/25 03:50:14;;;;;;;8.27;5.53;;;;;;;2.36;95.93;101056.03;5030373;28;20049;-75
2021/10/25 03:52:54;;;;;;;9.13;5.85;;;;;;;2.33;96.36;101057.88;5029827;28;20033;-75
2021/10/25 04:30:28;;;;;;;7.68;5.25;;;;;;;2.18;96.13;101037.88;5029115;28;20028;-76
2021/10/25 04:32:53;;;;;;;7.07;5.50;;;;;;;2.13;97.06;101045.13;5029525;28;20041;-76
2021/10/25 04:35:19;;;;;;;7.05;5.43;;;;;;;2.11;96.28;101049.59;5027499;28;20516;-76
2021/10/25 04:37:44;;;;;;;7.95;5.40;;;;;;;2.07;95.75;101042.84;5028770;28;20371;-76
2021/10/25 04:40:10;;;;;;;7.00;5.03;;;;;;;2.07;95.41;101046.31;5029348;28;20033;-76
2021/10/25 04:42:36;;;;;;;9.32;5.43;;;;;;;2.16;95.58;101057.16;5029737;28;20100;-76
2021/10/25 04:45:02;;;;;;;7.90;5.82;;;;;;;2.22;94.46;101046.41;5029141;28;20038;-76
2021/10/25 04:47:27;;;;;;;7.10;5.25;;;;;;;2.19;95.54;101041.31;5029632;28;20124;-76
2021/10/25 04:49:53;;;;;;;6.90;4.97;;;;;;;2.22;96.38;101042.00;5029726;28;20065;-75
2021/10/25 04:52:18;;;;;;;8.07;5.32;;;;;;;2.31;96.08;101038.91;5029019;28;20327;-76
2021/10/25 04:54:44;;;;;;;8.60;5.43;;;;;;;2.28;95.48;101038.22;5029545;28;20042;-76
2021/10/25 04:57:09;;;;;;;8.82;5.30;;;;;;;2.26;96.06;101034.84;5029352;28;20033;-76
2021/10/25 04:59:35;;;;;;;8.82;5.55;;;;;;;2.24;95.83;101027.13;5027782;28;20030;-76
2021/10/25 05:02:02;;;;;;;9.07;5.90;;;;;;;2.15;95.18;101021.56;5028999;28;20060;-76
2021/10/25 05:04:28;;;;;;;9.15;5.57;;;;;;;2.08;96.01;101034.09;5027453;28;20554;-76
2021/10/25 05:06:53;;;;;;;6.85;5.22;;;;;;;2.04;96.07;101041.25;5029595;28;20125;-76
2021/10/25 05:09:18;;;;;;;9.52;5.68;;;;;;;2.00;95.81;101041.50;5028091;28;20095;-76
2021/10/25 05:11:44;;;;;;;6.90;5.25;;;;;;;1.99;96.08;101027.63;5029465;28;20053;-76
2021/10/25 05:14:10;;;;;;;6.80;5.13;;;;;;;2.01;96.24;101027.56;5027268;28;20049;-76
2021/10/25 05:16:35;;;;;;;7.32;5.22;;;;;;;2.12;95.38;101019.94;5027834;28;20091;-76
2021/10/25 05:19:01;;;;;;;7.80;4.85;;;;;;;2.08;95.72;101040.16;5027895;28;20030;-76
2021/10/25 05:21:26;;;;;;;8.82;5.78;;;;;;;2.14;95.59;101036.38;5029230;28;20034;-76
2021/10/25 05:23:52;;;;;;;7.40;5.32;;;;;;;2.16;95.76;101033.69;5028046;28;20057;-76
2021/10/25 05:26:17;;;;;;;8.13;5.78;;;;;;;2.04;94.77;101041.25;5027210;28;20395;-76
2021/10/25 05:28:43;;;;;;;7.38;5.72;;;;;;;1.97;95.52;101042.50;5027841;28;20092;-76
2021/10/25 05:31:11;;;;;;;7.90;5.60;;;;;;;1.92;95.83;101034.09;5029080;28;20419;-76
2021/10/25 05:33:39;;;;;;;8.13;5.63;;;;;;;1.89;96.17;101044.72;5027937;28;20503;-76
2021/10/25 05:36:06;;;;;;;9.93;6.30;;;;;;;1.83;96.88;101032.81;5028714;28;20444;-76
2021/10/25 05:38:31;;;;;;;7.57;5.88;;;;;;;1.84;96.78;101025.88;5029503;28;20082;-75
2021/10/25 05:40:57;;;;;;;8.88;6.10;;;;;;;1.94;96.08;101028.81;5027875;28;20064;-76
2021/10/25 05:43:22;;;;;;;9.27;5.30;;;;;;;1.98;96.68;101027.69;5028878;28;20044;-76
2021/10/25 05:45:48;;;;;;;8.05;5.93;;;;;;;2.04;96.35;101027.38;5029184;28;20099;-76
2021/10/25 05:48:13;;;;;;;15.30;10.02;;;;;;;2.03;96.01;101026.53;5029782;28;20048;-76
2021/10/25 05:50:39;;;;;;;23.95;14.02;;;;;;;2.03;95.24;101030.91;5032829;28;20115;-76
2021/10/25 05:53:05;;;;;;;29.50;16.60;;;;;;;1.98;96.09;101030.31;5032658;28;20025;-76
2021/10/25 05:55:31;;;;;;;24.92;15.25;;;;;;;1.94;96.26;101041.84;5032693;28;20022;-76
2021/10/25 05:57:57;;;;;;;19.23;12.35;;;;;;;1.93;96.13;101027.94;5032669;28;20030;-76
2021/10/25 06:00:27;;;;;;;23.95;11.45;;;;;;;1.93;97.12;101035.78;5031972;28;20123;-76
2021/10/25 06:02:54;;;;;;;23.20;12.15;;;;;;;1.88;96.61;101032.56;5030991;28;20529;-76
2021/10/25 06:05:21;;;;;;;26.05;12.43;;;;;;;1.95;97.32;101028.72;5032161;28;20037;-76
2021/10/25 06:07:48;;;;;;;32.88;14.70;;;;;;;1.98;96.51;101043.34;5032164;28;20505;-76
2021/10/25 06:10:14;;;;;;;32.92;13.82;;;;;;;1.94;97.09;101037.47;5030260;28;20033;-76
2021/10/25 06:12:42;;;;;;;30.05;13.10;;;;;;;1.94;96.91;101049.69;5032443;28;20033;-78
2021/10/25 06:15:17;;;;;;;25.67;11.00;;;;;;;1.94;97.64;101055.72;5030747;28;20037;-76
2021/10/25 06:17:55;;;;;;;20.00;9.57;;;;;;;1.96;97.83;101050.44;5032552;28;20120;-76
2021/10/25 06:20:29;;;;;;;18.27;9.25;;;;;;;1.97;97.17;101055.56;5031728;28;20542;-76
2021/10/25 06:22:55;;;;;;;14.68;8.55;;;;;;;2.02;97.83;101050.09;5032524;28;20034;-76
2021/10/25 06:25:22;;;;;;;15.30;8.60;;;;;;;2.09;97.94;101057.47;5032215;28;20033;-76
2021/10/25 06:27:49;;;;;;;14.00;7.65;;;;;;;2.18;97.02;101052.69;5031987;28;20041;-76
2021/10/25 06:30:16;;;;;;;11.63;7.43;;;;;;;2.18;97.62;101063.97;5031723;28;20025;-76
2021/10/25 06:32:41;;;;;;;10.65;7.30;;;;;;;2.20;97.57;101054.28;5032147;28;20387;-76
2021/10/25 06:35:09;;;;;;;11.23;7.53;;;;;;;2.26;97.59;101050.50;5032366;28;20040;-76
2021/10/25 06:37:49;;;;;;;11.85;7.38;;;;;;;2.30;97.02;101057.22;5032334;28;20409;-76
2021/10/25 06:40:17;;;;;;;11.57;7.10;;;;;;;2.43;97.69;101065.22;5031925;28;20032;-76
2021/10/25 06:42:42;;;;;;;12.98;7.13;;;;;;;2.54;96.90;101076.72;5032086;28;20205;-76
2021/10/25 06:45:10;;;;;;;10.63;6.82;;;;;;;2.64;96.64;101082.28;5032107;28;20044;-76
2021/10/25 06:47:35;;;;;;;11.30;7.38;;;;;;;2.63;95.42;101090.22;5032333;28;20051;-76
2021/10/25 06:50:01;;;;;;;10.82;6.15;;;;;;;2.72;96.01;101079.25;5030454;28;20041;-76
2021/10/25 06:52:26;;;;;;;10.63;6.80;;;;;;;2.79;96.09;101084.94;5031604;28;20041;-76
2021/10/25 06:54:52;;;;;;;11.48;7.00;;;;;;;2.94;96.13;101084.06;5031518;28;20042;-76
2021/10/25 06:57:17;;;;;;;12.35;6.88;;;;;;;3.05;95.77;101071.22;5031665;28;20034;-76
2021/10/25 06:59:42;;;;;;;11.63;7.38;;;;;;;3.10;96.26;101068.31;5029079;28;20558;-76
2021/10/25 07:02:07;;;;;;;12.00;7.65;;;;;;;3.18;95.81;101068.72;5030816;28;20091;-76
2021/10/25 07:04:33;;;;;;;11.27;7.50;;;;;;;3.23;96.06;101069.28;5032178;28;20030;-76
2021/10/25 07:06:58;;;;;;;12.73;7.80;;;;;;;3.30;96.63;101072.38;5031481;28;20524;-76
2021/10/25 07:09:24;;;;;;;12.10;8.23;;;;;;;3.37;96.22;101068.47;5030165;28;20189;-76
2021/10/25 07:11:49;;;;;;;12.55;7.53;;;;;;;3.40;96.28;101071.72;5031464;28;20029;-76
2021/10/25 07:14:22;;;;;;;11.00;7.05;;;;;;;3.56;96.01;101070.81;5031031;28;20032;-76
2021/10/25 07:16:52;;;;;;;10.80;6.97;;;;;;;3.72;96.57;101081.16;5031616;28;20498;-76
2021/10/25 07:22:23;;;;;;;10.85;7.40;;;;;;;3.94;95.74;101083.31;5031251;28;20460;-76
2021/10/25 08:08:08;;;;;;;10.82;7.63;;;;;;;5.14;93.47;101093.94;5030547;28;20128;-76
2021/10/25 08:10:41;;;;;;;12.45;8.55;;;;;;;5.23;93.56;101094.16;5030172;28;20052;-76
2021/10/25 08:13:13;;;;;;;12.40;8.25;;;;;;;5.48;94.14;101097.72;5030002;28;20049;-76
2021/10/25 08:15:42;;;;;;;10.57;7.50;;;;;;;5.65;93.62;101102.66;5030140;28;20029;-76
2021/10/25 08:18:29;;;;;;;10.27;7.72;;;;;;;5.83;93.48;101103.16;5029957;28;20521;-76
2021/10/25 08:20:55;;;;;;;19.73;11.80;;;;;;;6.02;92.82;101105.38;5030180;28;20037;-76
2021/10/25 08:23:21;;;;;;;24.70;13.02;;;;;;;6.12;92.31;101102.94;5029132;28;20087;-76
2021/10/25 08:25:46;;;;;;;18.00;11.30;;;;;;;6.04;91.90;101103.47;5030357;28;20037;-77
2021/10/25 08:28:12;;;;;;;17.88;9.95;;;;;;;6.12;92.32;101098.50;5034560;28;20124;-77
2021/10/25 08:30:37;;;;;;;12.82;9.07;;;;;;;6.26;92.35;101087.03;5034484;28;20034;-77
2021/10/25 08:33:29;;;;;;;13.02;8.88;;;;;;;6.35;91.67;101088.16;5037021;28;20116;-77
2021/10/25 08:41:26;;;;;;;7.95;5.82;;;;;;;6.66;91.42;101075.44;5031108;28;20450;-76
2021/10/25 08:43:53;;;;;;;9.75;7.10;;;;;;;6.83;90.44;101069.75;5030411;28;20092;-77
2021/10/25 08:46:20;;;;;;;10.73;7.15;;;;;;;6.91;88.98;101070.03;5030498;28;20374;-76
2021/10/25 08:48:47;;;;;;;10.55;7.65;;;;;;;6.89;88.96;101063.19;5028922;28;20405;-77
2021/10/25 08:51:14;;;;;;;10.20;7.32;;;;;;;6.87;89.08;101063.31;5030977;28;20453;-77
2021/10/25 08:53:40;;;;;;;11.05;7.47;;;;;;;7.00;89.06;101061.44;5030502;28;20108;-77
2021/10/25 08:56:05;;;;;;;12.80;7.55;;;;;;;7.16;88.35;101061.13;5030318;28;20137;-77
2021/10/25 08:58:35;;;;;;;10.35;7.53;;;;;;;7.27;87.45;101052.44;5030561;28;20026;-77
2021/10/25 09:01:00;;;;;;;10.65;7.78;;;;;;;7.25;85.87;101059.59;5030932;28;20039;-76
2021/10/25 09:03:26;;;;;;;10.23;7.60;;;;;;;7.27;86.91;101062.09;5031517;28;20041;-77
2021/10/25 09:06:02;;;;;;;10.98;7.82;;;;;;;7.30;87.41;101054.81;5029664;28;20061;-77
2021/10/25 09:08:29;;;;;;;11.40;8.52;;;;;;;7.48;88.15;101060.44;5030331;28;20068;-77
2021/10/25 09:10:55;;;;;;;11.43;8.05;;;;;;;7.63;88.17;101051.38;5030688;28;20041;-77
2021/10/25 09:13:23;;;;;;;13.40;9.23;;;;;;;7.81;87.24;101053.50;5029245;28;20666;-77
2021/10/25 09:16:00;;;;;;;14.07;9.32;;;;;;;8.01;87.54;101063.31;5029618;28;20049;-77
2021/10/25 09:18:28;;;;;;;14.65;10.40;;;;;;;8.06;86.77;101065.56;5029834;28;20037;-76
2021/10/25 09:20:56;;;;;;;16.20;10.10;;;;;;;8.17;86.75;101068.16;5028873;28;20045;-77
2021/10/25 09:23:31;;;;;;;16.33;10.05;;;;;;;8.07;87.06;101073.34;5032245;28;20029;-77
2021/10/25 09:26:03;;;;;;;14.50;9.00;;;;;;;8.16;86.22;101070.94;5032529;28;20041;-77
2021/10/25 09:28:35;;;;;;;14.10;9.40;;;;;;;8.29;87.07;101068.97;5033502;28;20403;-77
2021/10/25 09:31:06;;;;;;;16.10;9.45;;;;;;;8.28;86.55;101072.59;5034224;28;20033;-77
2021/10/25 09:33:37;;;;;;;13.65;7.95;;;;;;;8.37;86.65;101063.13;5033859;28;20029;-77
2021/10/25 09:36:08;;;;;;;11.77;7.90;;;;;;;8.39;86.10;101067.31;5033096;28;20045;-77
2021/10/25 09:49:09;;;;;;;13.55;9.32;;;;;;;8.63;85.12;101061.84;5033474;28;20052;-77
2021/10/25 09:51:38;;;;;;;12.13;8.68;;;;;;;8.84;84.92;101058.38;5033831;28;20498;-77
2021/10/25 09:54:05;;;;;;;12.98;8.88;;;;;;;9.01;84.38;101056.97;5033312;28;20068;-77
2021/10/25 09:56:36;;;;;;;13.98;8.95;;;;;;;9.01;83.72;101057.84;5033407;28;20112;-77
2021/10/25 09:59:30;;;;;;;15.57;9.77;;;;;;;9.09;83.51;101058.03;5033050;28;20045;-76
2021/10/25 10:01:56;;;;;;;15.68;9.90;;;;;;;9.27;83.55;101055.66;5033178;28;20510;-77
2021/10/25 10:04:22;;;;;;;16.73;8.65;;;;;;;9.31;84.56;101057.03;5032823;28;20061;-77
2021/10/25 10:06:47;;;;;;;14.05;9.88;;;;;;;9.35;83.58;101053.19;5032753;28;20084;-76
2021/10/25 10:09:14;;;;;;;17.45;10.27;;;;;;;9.56;84.00;101053.16;5032954;28;20160;-76
2021/10/25 10:11:40;;;;;;;15.43;10.20;;;;;;;9.64;83.02;101049.84;5032085;28;20030;-77
2021/10/25 10:14:07;;;;;;;14.05;10.00;;;;;;;9.74;81.97;101044.59;5032019;28;20282;-77
2021/10/25 10:16:35;;;;;;;10.80;8.07;;;;;;;9.81;83.44;101048.38;5032892;28;20101;-76
2021/10/25 10:19:04;;;;;;;12.98;9.15;;;;;;;9.95;83.27;101050.63;5033179;28;20041;-76
2021/10/25 10:21:30;;;;;;;18.38;9.38;;;;;;;10.23;81.83;101044.72;5033232;28;20037;-76
2021/10/25 10:24:04;;;;;;;12.55;9.40;;;;;;;10.34;81.03;101052.56;5033005;28;20498;-76
2021/10/25 10:26:32;;;;;;;13.90;8.80;;;;;;;10.42;81.24;101050.06;5032094;28;20037;-77
2021/10/25 10:29:11;;;;;;;13.23;9.40;;;;;;;10.55;80.52;101049.78;5032943;28;20040;-76
2021/10/25 10:31:37;;;;;;;12.25;9.15;;;;;;;10.79;79.95;101050.19;5033259;28;20113;-77
2021/10/25 10:34:11;;;;;;;13.13;9.70;;;;;;;10.92;77.92;101049.09;5032620;28;20036;-76
2021/10/25 10:36:47;;;;;;;15.23;9.43;;;;;;;11.05;78.54;101047.78;5031187;28;20033;-77
2021/10/25 10:39:15;;;;;;;12.93;9.70;;;;;;;11.24;77.75;101043.44;5032780;28;20033;-76
2021/10/25 10:41:43;;;;;;;11.95;8.82;;;;;;;11.29;74.78;101041.19;5031777;28;20034;-77
2021/10/25 10:44:11;;;;;;;12.25;9.20;;;;;;;11.39;76.68;101049.97;5030948;28;20074;-76
2021/10/25 10:46:54;;;;;;;13.25;9.57;;;;;;;11.44;76.07;101057.44;5030862;28;20030;-76
2021/10/25 10:49:25;;;;;;;11.60;8.75;;;;;;;11.63;76.28;101056.53;5032675;28;20057;-77
2021/10/25 11:00:10;;;;;;;9.50;7.22;;;;;;;12.52;73.79;101032.91;5032146;28;20036;-77
2021/10/25 11:02:37;;;;;;;9.82;7.18;;;;;;;12.72;72.78;101032.72;5030950;28;20041;-77
2021/10/25 11:05:09;;;;;;;9.98;6.38;;;;;;;12.67;69.64;101024.41;5032276;28;20107;-76
2021/10/25 11:07:39;;;;;;;9.63;6.25;;;;;;;12.82;70.07;101024.69;5032442;28;20122;-76
2021/10/25 11:10:06;;;;;;;8.27;5.50;;;;;;;12.66;70.01;101018.25;5032527;28;20451;-77
2021/10/25 11:12:31;;;;;;;9.00;6.45;;;;;;;12.80;69.81;101019.53;5031998;28;20425;-77
2021/10/25 11:15:02;;;;;;;7.45;5.70;;;;;;;12.82;67.47;101016.72;5032326;28;20041;-77
2021/10/25 11:17:30;;;;;;;8.80;6.13;;;;;;;12.94;69.05;101011.03;5032519;28;20448;-76
2021/10/25 11:19:56;;;;;;;7.30;5.80;;;;;;;12.89;68.65;101007.97;5032683;28;20037;-77
2021/10/25 11:22:34;;;;;;;8.55;6.25;;;;;;;12.74;69.84;101002.41;5030746;28;20109;-77
2021/10/25 11:25:03;;;;;;;7.30;6.10;;;;;;;12.58;69.33;101001.44;5032208;28;20064;-76
2021/10/25 11:27:35;;;;;;;8.30;5.13;;;;;;;12.68;71.33;100994.22;5031987;28;20042;-77
2021/10/25 11:30:05;;;;;;;7.88;5.78;;;;;;;12.73;69.11;100995.44;5032482;28;20029;-77
2021/10/25 11:32:31;;;;;;;9.30;6.00;;;;;;;12.88;67.40;100985.09;5030469;28;20064;-76
2021/10/25 11:34:58;;;;;;;7.85;5.72;;;;;;;13.15;68.68;100991.22;5031935;28;20057;-77
2021/10/25 11:37:26;;;;;;;8.57;6.55;;;;;;;13.12;68.69;100979.09;5031663;28;20037;-77
2021/10/25 11:40:05;;;;;;;8.85;5.63;;;;;;;13.22;67.64;100978.16;5031999;28;20461;-76
2021/10/25 11:42:39;;;;;;;8.80;5.90;;;;;;;13.36;68.74;100978.41;5031252;28;20103;-77
2021/10/25 11:45:07;;;;;;;9.93;6.50;;;;;;;13.52;67.16;100977.66;5031578;28;20053;-77
2021/10/25 11:47:36;;;;;;;8.35;6.35;;;;;;;13.65;66.15;100976.38;5030713;28;20554;-77
2021/10/25 11:50:16;;;;;;;8.82;5.80;;;;;;;13.73;66.09;100971.06;5029899;28;20040;-77
2021/10/25 11:52:48;;;;;;;7.47;5.33;;;;;;;13.76;65.37;100968.94;5032129;28;20087;-77
2021/10/25 11:55:17;;;;;;;10.07;5.82;;;;;;;13.59;65.33;100962.75;5031042;28;20292;-77
2021/10/25 11:58:03;;;;;;;7.15;5.20;;;;;;;13.69;67.30;100953.81;5031564;28;20410;-77
2021/10/25 12:00:30;;;;;;;7.18;5.00;;;;;;;13.56;64.61;100954.25;5030567;28;20033;-76
2021/10/25 12:03:09;;;;;;;5.95;4.60;;;;;;;13.55;66.90;100957.91;5031409;28;20117;-77
2021/10/25 12:05:35;;;;;;;8.30;5.07;;;;;;;13.66;66.08;100957.63;5031851;28;20030;-77
2021/10/25 12:08:00;;;;;;;4.97;3.97;;;;;;;13.74;66.59;100948.84;5031481;28;20524;-76
2021/10/25 12:10:27;;;;;;;5.97;4.10;;;;;;;13.81;67.32;100942.72;5028217;28;20733;-76
2021/10/25 12:12:55;;;;;;;4.80;3.90;;;;;;;14.02;65.84;100936.09;5028522;28;20479;-77
2021/10/25 12:15:22;;;;;;;6.22;4.32;;;;;;;14.16;65.71;100938.13;5030854;28;20117;-77
2021/10/25 12:17:49;;;;;;;6.32;4.30;;;;;;;14.31;61.62;100938.28;5031068;28;20040;-76
2021/10/25 12:20:22;;;;;;;5.95;4.07;;;;;;;14.38;62.53;100935.78;5030361;28;20037;-77
2021/10/25 12:23:04;;;;;;;4.50;3.50;;;;;;;14.48;61.72;100923.16;5029693;28;20395;-77
2021/10/25 12:25:31;;;;;;;6.88;3.70;;;;;;;14.58;60.41;100926.47;5030718;28;20037;-77
2021/10/25 12:28:00;;;;;;;5.25;3.40;;;;;;;14.53;60.15;100914.66;5029568;28;20586;-77
2021/10/25 12:30:27;;;;;;;4.85;3.20;;;;;;;14.50;59.13;100915.00;5030686;28;20053;-77
2021/10/25 12:32:57;;;;;;;3.45;2.50;;;;;;;14.45;57.57;100915.50;5031178;28;20136;-77
2021/10/25 12:35:34;;;;;;;4.70;2.90;;;;;;;14.52;56.03;100913.00;5030874;28;20038;-77
2021/10/25 12:38:01;;;;;;;4.85;2.90;;;;;;;14.50;58.17;100913.16;5030647;28;20064;-77
2021/10/25 12:40:27;;;;;;;3.63;2.50;;;;;;;14.56;57.22;100907.22;5030596;28;20056;-77
2021/10/25 12:43:00;;;;;;;3.88;2.60;;;;;;;14.55;58.75;100904.72;5029629;28;20112;-77
2021/10/25 12:45:29;;;;;;;3.45;2.45;;;;;;;14.54;57.30;100898.56;5031008;28;20380;-77
2021/10/25 12:47:59;;;;;;;5.30;2.47;;;;;;;14.49;56.77;100905.34;5030458;28;20400;-77
2021/10/25 12:50:30;;;;;;;3.15;2.10;;;;;;;14.56;59.00;100901.03;5030492;28;20041;-77
2021/10/25 12:52:55;;;;;;;3.30;2.50;;;;;;;14.60;55.95;100895.22;5029250;28;20034;-77
2021/10/25 12:55:21;;;;;;;4.68;2.30;;;;;;;14.59;58.01;100898.88;5030859;28;20406;-77
2021/10/25 12:57:46;;;;;;;5.43;2.90;;;;;;;14.45;57.36;100899.53;5031788;28;20052;-77
2021/10/25 13:00:16;;;;;;;4.00;2.80;;;;;;;14.43;57.69;100891.72;5034649;28;20030;-77
2021/10/25 13:02:49;;;;;;;7.68;2.70;;;;;;;14.33;58.39;100895.56;5034799;28;20037;-77
2021/10/25 13:05:31;;;;;;;4.63;3.05;;;;;;;14.13;59.66;100895.88;5034385;28;20571;-77
2021/10/25 13:07:59;;;;;;;4.65;3.20;;;;;;;14.17;56.77;100894.56;5034570;28;20052;-77
2021/10/25 13:10:32;;;;;;;6.88;3.20;;;;;;;14.18;58.06;100874.97;5034050;28;20045;-77
2021/10/25 13:13:00;;;;;;;5.10;2.72;;;;;;;14.12;58.77;100883.59;5034607;28;20109;-77
2021/10/25 13:15:25;;;;;;;5.63;2.80;;;;;;;14.10;59.69;100882.09;5032614;28;20623;-76
2021/10/25 13:17:52;;;;;;;3.40;2.45;;;;;;;14.16;59.87;100879.59;5034417;28;20048;-77